Aviation Digital Data Service (ADDS)

Output produced by METARs form (1041 UTC 29 July 2014)
found at http://aviationweather.gov/adds/metars/
 
KHYA 290536Z 2906/3006 24012KT P6SM FEW150 
     FM291200 27010KT P6SM FEW150 
     FM291700 24009KT P6SM FEW150 
     FM292200 21008KT P6SM FEW250 
     FM300300 22004KT P6SM FEW250